Time;durP1;ratioP1;P1;durP2;ratioP2;P2;SDS_P1;SDS_P2;PMS_P1;PMS_P2;Temp;Humidity;BMP_temperature;BMP_pressure;BME280_temperature;BME280_humidity;BME280_pressure;Samples;Min_cycle;Max_cycle;Signal;HPM_P1;HPM_P2
2023/06/24 18:01:56;;;;;;;2.78;2.58;;;;;;;;;;6158376;22;1311166;-86
2023/06/24 18:04:24;;;;;;;3.25;2.92;;;;;;;;;;6158856;23;20689;-87
2023/06/24 18:06:51;;;;;;;3.05;2.85;;;;;;;;;;6159890;23;20191;-88
2023/06/24 18:09:19;;;;;;;3.45;3.15;;;;;;;;;;6159615;23;20166;-87
2023/06/24 18:11:47;;;;;;;2.80;2.60;;;;;;;;;;6149636;23;20725;-88
2023/06/24 18:14:16;;;;;;;3.13;2.92;;;;;;;;;;6133044;23;20172;-88
2023/06/24 18:16:50;;;;;;;3.22;2.97;;;;;;;;;;6132137;23;20175;-87
2023/06/24 18:19:20;;;;;;;2.92;2.72;;;;;;;;;;6132305;23;20164;-89
2023/06/24 18:21:48;;;;;;;3.33;3.13;;;;;;;;;;6131304;23;20195;-89
2023/06/24 18:24:15;;;;;;;3.42;3.10;;;;;;;;;;6130817;23;20163;-87
2023/06/24 18:26:43;;;;;;;2.80;2.60;;;;;;;;;;6131028;23;20215;-88
2023/06/24 18:29:10;;;;;;;2.92;2.72;;;;;;;;;;6131981;23;20260;-87
2023/06/24 18:31:42;;;;;;;3.20;2.90;;;;;;;;;;6128713;23;20231;-87
2023/06/24 18:34:09;;;;;;;2.47;2.38;;;;;;;;;;6128619;23;20195;-88
2023/06/24 18:36:38;;;;;;;4.13;3.83;;;;;;;;;;6130155;23;20262;-88
2023/06/24 18:39:06;;;;;;;3.25;2.95;;;;;;;;;;6130353;23;20186;-88
2023/06/24 18:41:33;;;;;;;3.05;2.85;;;;;;;;;;6130548;23;20200;-88
2023/06/24 18:44:03;;;;;;;3.47;3.17;;;;;;;;;;6129727;23;20186;-87
2023/06/24 18:46:30;;;;;;;3.78;3.47;;;;;;;;;;6129686;23;20227;-87
2023/06/24 18:48:57;;;;;;;3.55;3.30;;;;;;;;;;6129817;23;20657;-88
2023/06/24 18:51:25;;;;;;;3.40;3.20;;;;;;;;;;6130793;23;20589;-88
2023/06/24 18:53:54;;;;;;;3.35;3.15;;;;;;;;;;6131205;23;20183;-88
2023/06/24 18:56:21;;;;;;;2.85;2.65;;;;;;;;;;6131204;23;20203;-88
2023/06/24 18:58:50;;;;;;;3.88;3.58;;;;;;;;;;6131518;23;20176;-88
2023/06/24 19:01:18;;;;;;;3.10;2.90;;;;;;;;;;6136252;23;20199;-88
2023/06/24 19:03:46;;;;;;;3.40;3.20;;;;;;;;;;6160737;23;20210;-87
2023/06/24 19:06:13;;;;;;;4.78;4.38;;;;;;;;;;6161562;23;20175;-87
2023/06/24 19:08:41;;;;;;;4.13;3.72;;;;;;;;;;6162685;23;20569;-87
2023/06/24 19:11:10;;;;;;;3.42;3.17;;;;;;;;;;6161801;23;20560;-87
2023/06/24 19:13:38;;;;;;;3.78;3.53;;;;;;;;;;6160759;23;20641;-87
2023/06/24 19:16:06;;;;;;;3.97;3.67;;;;;;;;;;6161971;23;20195;-87
2023/06/24 19:18:33;;;;;;;3.53;3.22;;;;;;;;;;6161961;23;20206;-87
2023/06/24 19:21:01;;;;;;;3.50;3.28;;;;;;;;;;6163116;23;20226;-90
2023/06/24 19:23:28;;;;;;;3.50;3.20;;;;;;;;;;6164746;23;20171;-89
2023/06/24 19:25:56;;;;;;;3.60;3.30;;;;;;;;;;6161834;23;20186;-88
2023/06/24 19:28:25;;;;;;;3.58;3.28;;;;;;;;;;6162510;23;20199;-88
2023/06/24 19:30:52;;;;;;;4.15;3.75;;;;;;;;;;6164779;23;20178;-88
2023/06/24 19:33:20;;;;;;;4.25;3.95;;;;;;;;;;6160793;23;20191;-88
2023/06/24 19:35:47;;;;;;;3.17;2.97;;;;;;;;;;6159803;23;20178;-88
2023/06/24 19:38:15;;;;;;;3.33;3.03;;;;;;;;;;6159527;23;20182;-88
2023/06/24 19:40:43;;;;;;;3.80;3.50;;;;;;;;;;6159160;23;20171;-88
2023/06/24 19:43:11;;;;;;;3.30;3.10;;;;;;;;;;6160005;23;20195;-87
2023/06/24 19:45:39;;;;;;;3.90;3.60;;;;;;;;;;6159148;23;20199;-87
2023/06/24 19:48:07;;;;;;;3.40;3.20;;;;;;;;;;6159389;23;20278;-87
2023/06/24 19:50:35;;;;;;;3.05;2.85;;;;;;;;;;6159823;23;20634;-88
2023/06/24 19:53:02;;;;;;;3.92;3.53;;;;;;;;;;6160073;23;20222;-87
2023/06/24 19:55:30;;;;;;;3.60;3.30;;;;;;;;;;6160511;23;20649;-87
2023/06/24 19:57:57;;;;;;;3.35;3.05;;;;;;;;;;6161334;23;20611;-87
2023/06/24 20:00:25;;;;;;;3.65;3.40;;;;;;;;;;6162164;23;20171;-87
2023/06/24 20:02:54;;;;;;;3.47;3.17;;;;;;;;;;6159924;23;20214;-86
2023/06/24 20:05:22;;;;;;;3.72;3.42;;;;;;;;;;6160009;23;20175;-86
2023/06/24 20:07:50;;;;;;;3.75;3.42;;;;;;;;;;6159371;23;20277;-87
2023/06/24 20:10:17;;;;;;;3.40;3.10;;;;;;;;;;6160869;23;20202;-86
2023/06/24 20:12:45;;;;;;;3.22;3.03;;;;;;;;;;6160027;23;20227;-87
2023/06/24 20:15:13;;;;;;;3.72;3.42;;;;;;;;;;6158464;23;20175;-87
2023/06/24 20:17:42;;;;;;;4.10;3.80;;;;;;;;;;6159600;23;20175;-87
2023/06/24 20:20:14;;;;;;;4.18;3.67;;;;;;;;;;6159883;23;20258;-87
2023/06/24 20:22:41;;;;;;;3.28;3.08;;;;;;;;;;6159466;23;20234;-88
2023/06/24 20:25:09;;;;;;;5.05;3.78;;;;;;;;;;6161345;23;20250;-88
2023/06/24 20:27:37;;;;;;;4.15;3.38;;;;;;;;;;6159915;23;20231;-87
2023/06/24 20:30:06;;;;;;;3.75;3.45;;;;;;;;;;6158660;23;20183;-87
2023/06/24 20:32:34;;;;;;;4.10;3.70;;;;;;;;;;6159623;23;20218;-87
2023/06/24 20:35:01;;;;;;;3.67;3.35;;;;;;;;;;6159155;23;20206;-87
2023/06/24 20:37:30;;;;;;;4.53;4.13;;;;;;;;;;6159550;23;20476;-86
2023/06/24 20:39:58;;;;;;;4.05;3.75;;;;;;;;;;6160533;23;20179;-87
2023/06/24 20:42:25;;;;;;;4.35;3.95;;;;;;;;;;6159819;23;20206;-87
2023/06/24 20:44:53;;;;;;;3.80;3.30;;;;;;;;;;6160681;23;20179;-87
2023/06/24 20:47:20;;;;;;;4.20;3.85;;;;;;;;;;6159990;23;20199;-87
2023/06/24 20:49:48;;;;;;;4.20;3.80;;;;;;;;;;6160495;23;20206;-87
2023/06/24 20:52:15;;;;;;;4.28;3.97;;;;;;;;;;6161057;23;20234;-89
2023/06/24 20:54:44;;;;;;;4.20;3.90;;;;;;;;;;6160578;23;20172;-88
2023/06/24 20:57:12;;;;;;;4.82;4.18;;;;;;;;;;6159128;23;20176;-88
2023/06/24 20:59:39;;;;;;;4.40;4.00;;;;;;;;;;6158696;23;20182;-88
2023/06/24 21:02:07;;;;;;;3.80;3.50;;;;;;;;;;6158156;23;20195;-88
2023/06/24 21:04:35;;;;;;;4.70;3.88;;;;;;;;;;6157277;23;20168;-89
2023/06/24 21:07:03;;;;;;;4.18;3.72;;;;;;;;;;6158305;23;20253;-89
2023/06/24 21:09:30;;;;;;;3.67;3.38;;;;;;;;;;6159922;23;20230;-89
2023/06/24 21:11:59;;;;;;;3.92;3.63;;;;;;;;;;6158963;23;20255;-89
2023/06/24 21:14:27;;;;;;;4.43;4.03;;;;;;;;;;6158734;23;20182;-90
2023/06/24 21:16:54;;;;;;;4.35;3.97;;;;;;;;;;6159184;23;20172;-89
2023/06/24 21:19:22;;;;;;;3.80;3.50;;;;;;;;;;6159289;23;20230;-89
2023/06/24 21:21:49;;;;;;;3.80;3.50;;;;;;;;;;6158985;23;20238;-89
2023/06/24 21:24:17;;;;;;;4.38;4.05;;;;;;;;;;6158949;23;20182;-91
2023/06/24 21:26:44;;;;;;;4.13;3.72;;;;;;;;;;6158496;23;20210;-90
2023/06/24 21:29:13;;;;;;;3.80;3.40;;;;;;;;;;6158703;23;20195;-89
2023/06/24 21:31:41;;;;;;;4.40;4.07;;;;;;;;;;6159239;23;20194;-89
2023/06/24 21:34:09;;;;;;;3.92;3.63;;;;;;;;;;6158644;23;20171;-89
2023/06/24 21:36:36;;;;;;;3.95;3.65;;;;;;;;;;6158776;23;20518;-89
2023/06/24 21:39:04;;;;;;;4.35;3.95;;;;;;;;;;6158670;23;20174;-90
2023/06/24 21:41:32;;;;;;;4.93;4.53;;;;;;;;;;6158751;23;20565;-89
2023/06/24 21:43:59;;;;;;;4.10;3.80;;;;;;;;;;6158939;23;20226;-89
2023/06/24 21:46:28;;;;;;;4.88;4.47;;;;;;;;;;6159694;23;20206;-90
2023/06/24 21:48:57;;;;;;;4.55;3.90;;;;;;;;;;6161224;23;20763;-89
2023/06/24 21:51:25;;;;;;;3.85;3.47;;;;;;;;;;6161469;23;20226;-89
2023/06/24 21:53:52;;;;;;;3.42;3.13;;;;;;;;;;6159598;23;20233;-89
2023/06/24 21:56:20;;;;;;;4.35;4.05;;;;;;;;;;6159260;23;20222;-89
2023/06/24 21:58:47;;;;;;;4.35;4.03;;;;;;;;;;6160477;23;20254;-89
2023/06/24 22:01:15;;;;;;;3.80;3.50;;;;;;;;;;6160720;23;20278;-89
2023/06/24 22:03:44;;;;;;;3.65;3.35;;;;;;;;;;6160540;23;20234;-90
2023/06/24 22:06:11;;;;;;;4.30;3.75;;;;;;;;;;6134006;23;20490;-90
2023/06/24 22:08:39;;;;;;;3.75;3.47;;;;;;;;;;6161208;23;20637;-90
2023/06/24 22:11:06;;;;;;;3.95;3.65;;;;;;;;;;6160853;23;20482;-90
2023/06/24 22:13:34;;;;;;;4.43;4.03;;;;;;;;;;6160322;23;20506;-90
2023/06/24 22:16:02;;;;;;;3.75;3.40;;;;;;;;;;6160931;23;20172;-89
2023/06/24 22:18:29;;;;;;;3.83;3.47;;;;;;;;;;6160758;23;20557;-90
2023/06/24 22:20:58;;;;;;;3.92;3.63;;;;;;;;;;6160275;23;20179;-90
2023/06/24 22:23:26;;;;;;;4.50;4.10;;;;;;;;;;6160842;23;20246;-90
2023/06/24 22:25:53;;;;;;;3.53;3.25;;;;;;;;;;6161068;23;20179;-90
2023/06/24 22:28:21;;;;;;;4.15;3.85;;;;;;;;;;6160821;23;20269;-91
2023/06/24 22:30:48;;;;;;;3.88;3.58;;;;;;;;;;6160176;23;20198;-89
2023/06/24 22:33:16;;;;;;;4.28;3.97;;;;;;;;;;6160735;23;20182;-90
2023/06/24 22:35:44;;;;;;;4.28;3.90;;;;;;;;;;6160760;23;20207;-89
2023/06/24 22:38:13;;;;;;;4.00;3.70;;;;;;;;;;6160571;23;20186;-89
2023/06/24 22:40:40;;;;;;;4.32;3.92;;;;;;;;;;6160106;23;20171;-90
2023/06/24 22:43:08;;;;;;;4.18;3.78;;;;;;;;;;6158506;23;20654;-89
2023/06/24 22:45:35;;;;;;;4.25;3.55;;;;;;;;;;6160713;23;20168;-89
2023/06/24 22:48:03;;;;;;;3.70;3.40;;;;;;;;;;6160618;23;20222;-90
2023/06/24 22:50:31;;;;;;;3.67;3.38;;;;;;;;;;6160527;23;20669;-89
2023/06/24 22:52:58;;;;;;;3.80;3.38;;;;;;;;;;6160505;23;20688;-90
2023/06/24 22:55:27;;;;;;;3.97;3.67;;;;;;;;;;6160828;23;20175;-89
2023/06/24 22:57:55;;;;;;;4.00;3.70;;;;;;;;;;6160387;23;20202;-90
2023/06/24 23:00:23;;;;;;;3.42;3.17;;;;;;;;;;6160570;23;20535;-89
2023/06/24 23:02:51;;;;;;;3.90;3.42;;;;;;;;;;6159702;23;20201;-89
2023/06/24 23:05:19;;;;;;;5.10;3.92;;;;;;;;;;6160297;23;20233;-91
2023/06/24 23:07:48;;;;;;;4.55;3.90;;;;;;;;;;6160519;23;20171;-89
2023/06/24 23:10:16;;;;;;;4.05;3.75;;;;;;;;;;6160071;23;20199;-90
2023/06/24 23:12:48;;;;;;;4.03;3.72;;;;;;;;;;6160134;23;20588;-90
2023/06/24 23:15:16;;;;;;;3.90;3.60;;;;;;;;;;6160707;23;20162;-89
2023/06/24 23:17:44;;;;;;;3.53;3.25;;;;;;;;;;6159838;23;20189;-89
2023/06/24 23:20:13;;;;;;;4.03;3.72;;;;;;;;;;6159240;23;20225;-90
2023/06/24 23:22:42;;;;;;;4.30;4.00;;;;;;;;;;6159949;23;20196;-89
2023/06/24 23:25:11;;;;;;;4.32;3.92;;;;;;;;;;6160254;23;20186;-89
2023/06/24 23:27:39;;;;;;;4.00;3.70;;;;;;;;;;6160102;23;20175;-89
2023/06/24 23:30:12;;;;;;;3.85;3.55;;;;;;;;;;6160411;23;20202;-90
2023/06/24 23:32:41;;;;;;;3.83;3.53;;;;;;;;;;6160810;23;20197;-91
2023/06/24 23:35:11;;;;;;;3.83;3.53;;;;;;;;;;6160353;23;20197;-90
2023/06/24 23:37:40;;;;;;;3.30;3.10;;;;;;;;;;6160123;23;20191;-89
2023/06/24 23:40:10;;;;;;;3.95;3.65;;;;;;;;;;6158940;23;20167;-89
2023/06/24 23:42:39;;;;;;;4.22;3.53;;;;;;;;;;6159427;23;20206;-90
2023/06/24 23:45:09;;;;;;;3.60;3.30;;;;;;;;;;6160948;23;20194;-90
2023/06/24 23:47:37;;;;;;;3.92;3.63;;;;;;;;;;6160487;23;20164;-90
2023/06/24 23:50:05;;;;;;;3.78;3.47;;;;;;;;;;6160838;23;20261;-89
2023/06/24 23:52:33;;;;;;;4.07;3.78;;;;;;;;;;6160536;23;20195;-90
2023/06/24 23:55:00;;;;;;;4.40;4.00;;;;;;;;;;6160442;23;20584;-90
2023/06/24 23:57:28;;;;;;;4.00;3.47;;;;;;;;;;6160370;23;20510;-89
2023/06/24 23:59:55;;;;;;;3.63;3.38;;;;;;;;;;6160656;23;20171;-89
